Time;durP1;ratioP1;P1;durP2;ratioP2;P2;SDS_P1;SDS_P2;PMS_P1;PMS_P2;Temp;Humidity;BMP_temperature;BMP_pressure;BME280_temperature;BME280_humidity;BME280_pressure;Samples;Min_cycle;Max_cycle;Signal;HPM_P1;HPM_P2
2022/01/04 00:00:49;;;;;;;5.63;3.07;;;10.80;99.90;;;;;;5074265;28;20241;-76
2022/01/04 00:03:15;;;;;;;4.43;3.00;;;10.80;99.90;;;;;;5092072;28;20165;-76
2022/01/04 00:05:41;;;;;;;5.37;2.57;;;10.80;99.90;;;;;;5090473;28;20181;-75
2022/01/04 00:08:10;;;;;;;5.97;2.73;;;10.80;99.90;;;;;;5090510;28;20207;-75
2022/01/04 00:10:37;;;;;;;8.67;3.53;;;10.80;99.90;;;;;;5068603;28;20191;-74
2022/01/04 00:13:24;;;;;;;6.30;2.70;;;10.80;99.90;;;;;;5090362;28;20211;-75
2022/01/04 00:15:56;;;;;;;3.33;2.47;;;10.90;99.90;;;;;;5090238;28;20208;-74
2022/01/04 00:18:23;;;;;;;8.67;4.13;;;10.90;99.90;;;;;;5087324;28;20554;-74
2022/01/04 00:20:49;;;;;;;6.60;3.50;;;10.90;99.90;;;;;;5089736;28;20181;-73
2022/01/04 00:23:16;;;;;;;5.63;2.80;;;10.90;99.90;;;;;;5089904;28;20725;-74
2022/01/04 00:25:42;;;;;;;6.83;3.40;;;10.90;99.90;;;;;;5087667;28;20667;-74
2022/01/04 00:28:08;;;;;;;7.70;3.00;;;10.90;99.90;;;;;;5087414;28;20204;-74
2022/01/04 00:30:39;;;;;;;6.70;3.20;;;10.90;99.90;;;;;;5069888;28;20180;-74
2022/01/04 00:33:06;;;;;;;8.13;4.60;;;10.90;99.90;;;;;;5080529;28;20934;-75
2022/01/04 00:35:32;;;;;;;6.07;2.90;;;10.90;99.90;;;;;;5087982;28;20189;-74
2022/01/04 00:37:58;;;;;;;5.33;3.13;;;11.00;99.90;;;;;;5090152;28;20737;-75
2022/01/04 00:40:24;;;;;;;7.80;3.50;;;11.00;99.90;;;;;;5090836;28;20193;-74
2022/01/04 00:42:52;;;;;;;6.63;3.00;;;11.00;99.90;;;;;;5080138;28;20184;-74
2022/01/04 00:45:18;;;;;;;5.63;3.13;;;11.00;99.90;;;;;;5090281;28;20173;-74
2022/01/04 00:50:19;;;;;;;3.77;2.70;;;11.10;99.90;;;;;;5083319;28;20203;-74
2022/01/04 00:52:44;;;;;;;4.63;2.90;;;11.10;99.90;;;;;;5091014;28;20679;-74
2022/01/04 00:55:11;;;;;;;4.67;3.13;;;11.10;99.90;;;;;;5089448;28;20650;-74
2022/01/04 00:57:37;;;;;;;5.70;3.37;;;11.10;99.90;;;;;;5085910;28;20237;-74
2022/01/04 01:00:05;;;;;;;6.50;2.70;;;11.10;99.90;;;;;;5085328;28;20172;-75
2022/01/04 01:02:31;;;;;;;3.63;2.37;;;11.10;99.90;;;;;;5086499;28;20220;-75
2022/01/04 01:04:56;;;;;;;4.63;2.97;;;11.10;99.90;;;;;;5082452;28;20671;-74
2022/01/04 01:07:22;;;;;;;4.77;3.10;;;11.10;99.90;;;;;;5090047;28;20255;-74
2022/01/04 01:10:28;;;;;;;5.37;3.43;;;11.20;99.90;;;;;;5068192;28;20284;-75
2022/01/04 01:12:35;;;;;;;3.77;2.80;;;11.20;99.90;;;;;;5085585;28;20616;-75
2022/01/04 01:15:03;;;;;;;4.20;2.73;;;11.20;99.90;;;;;;5088829;28;20180;-74
2022/01/04 01:17:30;;;;;;;3.40;2.60;;;11.20;99.90;;;;;;5085919;28;20295;-74
2022/01/04 01:19:57;;;;;;;3.73;2.70;;;11.20;99.90;;;;;;5089719;28;20655;-74
2022/01/04 01:22:23;;;;;;;3.77;2.77;;;11.30;99.90;;;;;;5072181;28;20241;-74
2022/01/04 01:24:50;;;;;;;4.03;2.40;;;11.20;99.90;;;;;;5076454;28;20666;-74
2022/01/04 01:27:16;;;;;;;6.13;3.10;;;11.30;99.90;;;;;;5087542;28;20559;-74
2022/01/04 01:29:42;;;;;;;4.53;2.80;;;11.20;99.90;;;;;;5089414;28;20191;-74
2022/01/04 01:32:08;;;;;;;5.37;2.80;;;11.20;99.90;;;;;;5088805;28;20200;-74
2022/01/04 01:34:34;;;;;;;3.87;2.67;;;11.20;99.90;;;;;;5085269;28;20763;-74
2022/01/04 01:37:00;;;;;;;5.47;2.87;;;11.20;99.90;;;;;;5090993;28;20283;-74
2022/01/04 01:39:26;;;;;;;5.10;2.90;;;11.20;99.90;;;;;;5089884;28;20264;-74
2022/01/04 01:41:52;;;;;;;4.80;3.00;;;11.30;99.90;;;;;;5089655;28;20360;-74
2022/01/04 01:44:18;;;;;;;5.37;2.73;;;11.30;99.90;;;;;;5088956;28;20721;-75
2022/01/04 01:46:44;;;;;;;4.37;2.77;;;11.30;99.90;;;;;;5087903;28;20176;-74
2022/01/04 01:49:10;;;;;;;6.20;2.80;;;11.30;99.90;;;;;;5089608;28;20178;-74
2022/01/04 01:51:36;;;;;;;5.70;2.80;;;11.30;99.90;;;;;;5089114;28;20200;-74
2022/01/04 01:54:02;;;;;;;6.73;2.77;;;11.30;99.90;;;;;;5076935;28;20183;-74
2022/01/04 01:56:29;;;;;;;5.47;2.80;;;11.30;99.90;;;;;;5089137;28;20183;-74
2022/01/04 01:58:56;;;;;;;3.90;2.80;;;11.30;99.90;;;;;;5090244;28;20573;-74
2022/01/04 02:01:22;;;;;;;4.53;2.80;;;11.20;99.90;;;;;;5069331;28;20177;-74
2022/01/04 02:03:48;;;;;;;4.17;2.60;;;11.30;99.90;;;;;;5077976;28;20755;-75
2022/01/04 02:06:14;;;;;;;4.90;3.03;;;11.30;99.90;;;;;;5089018;28;20177;-75
2022/01/04 02:08:39;;;;;;;4.87;2.53;;;11.30;99.90;;;;;;5088747;28;20695;-74
2022/01/04 02:11:06;;;;;;;3.23;2.47;;;11.30;99.90;;;;;;5079350;28;20212;-74
2022/01/04 02:13:31;;;;;;;4.47;2.70;;;11.30;99.90;;;;;;5088455;28;20187;-74
2022/01/04 02:15:57;;;;;;;4.27;2.70;;;11.20;99.90;;;;;;5088536;28;20177;-74
2022/01/04 02:18:23;;;;;;;4.27;2.90;;;11.30;99.90;;;;;;5054852;28;20642;-74
2022/01/04 02:20:49;;;;;;;3.97;2.60;;;11.30;99.90;;;;;;5080255;28;20208;-74
2022/01/04 02:23:15;;;;;;;3.87;2.60;;;11.30;99.90;;;;;;5073741;28;20320;-74
2022/01/04 02:25:41;;;;;;;4.70;2.60;;;11.30;99.90;;;;;;5073734;28;20205;-74
2022/01/04 02:28:07;;;;;;;3.07;2.60;;;11.30;99.90;;;;;;5087638;28;20643;-74
2022/01/04 02:30:33;;;;;;;5.37;2.63;;;11.30;99.90;;;;;;5087661;28;20177;-74
2022/01/04 02:32:59;;;;;;;4.50;2.90;;;11.30;99.90;;;;;;5087683;28;20676;-74
2022/01/04 02:35:30;;;;;;;4.17;2.90;;;11.30;99.90;;;;;;5091907;28;20271;-74
2022/01/04 02:37:58;;;;;;;4.23;2.80;;;11.20;99.90;;;;;;5075892;28;20345;-74
2022/01/04 02:40:24;;;;;;;4.10;2.93;;;11.20;99.90;;;;;;5085524;28;20166;-74
2022/01/04 02:42:51;;;;;;;4.93;2.80;;;11.30;99.90;;;;;;5089227;28;20606;-74
2022/01/04 02:45:17;;;;;;;3.40;2.80;;;11.20;99.90;;;;;;5082892;28;20657;-74
2022/01/04 02:47:43;;;;;;;3.40;2.57;;;11.20;99.90;;;;;;5086165;28;20203;-74
2022/01/04 02:50:10;;;;;;;3.80;2.60;;;11.20;99.90;;;;;;5073442;28;20234;-74
2022/01/04 02:52:38;;;;;;;4.70;3.10;;;11.20;99.90;;;;;;5090109;28;20266;-74
2022/01/04 02:55:06;;;;;;;4.07;2.87;;;11.20;99.90;;;;;;5093375;28;20173;-74
2022/01/04 02:57:33;;;;;;;6.93;3.57;;;11.20;99.90;;;;;;5093275;28;20348;-74
2022/01/04 02:59:59;;;;;;;4.37;2.80;;;11.20;99.90;;;;;;5091344;28;20234;-74
2022/01/04 03:02:25;;;;;;;4.63;2.70;;;11.20;99.90;;;;;;5092852;28;20313;-74
2022/01/04 03:04:51;;;;;;;3.70;2.70;;;11.20;99.90;;;;;;5092652;28;20191;-74
2022/01/04 03:07:17;;;;;;;5.30;3.13;;;11.20;99.90;;;;;;5092994;28;20204;-74
2022/01/04 03:09:43;;;;;;;4.73;2.80;;;11.20;99.90;;;;;;5091737;28;20280;-74
2022/01/04 03:12:09;;;;;;;8.60;4.90;;;11.20;99.90;;;;;;5083429;28;20212;-74
2022/01/04 03:14:35;;;;;;;4.37;3.10;;;11.20;99.90;;;;;;5086805;28;20204;-74
2022/01/04 03:17:03;;;;;;;5.53;2.93;;;11.20;99.90;;;;;;5092977;28;20228;-74
2022/01/04 03:19:29;;;;;;;6.13;2.80;;;11.20;99.90;;;;;;5073802;28;20180;-74
2022/01/04 03:21:55;;;;;;;4.70;2.90;;;11.20;99.90;;;;;;5091355;28;20591;-74
2022/01/04 03:24:21;;;;;;;4.80;3.00;;;11.20;99.90;;;;;;5092521;28;20184;-74
2022/01/04 03:26:46;;;;;;;3.37;2.80;;;11.20;99.90;;;;;;5091134;28;20238;-74
2022/01/04 03:29:14;;;;;;;4.73;2.70;;;11.20;99.90;;;;;;5092560;28;20176;-74
2022/01/04 03:31:41;;;;;;;3.83;3.03;;;11.20;99.90;;;;;;5073245;28;20200;-75
2022/01/04 03:34:08;;;;;;;4.93;2.80;;;11.20;99.90;;;;;;5091636;28;20567;-74
2022/01/04 03:36:34;;;;;;;5.57;3.00;;;11.20;99.90;;;;;;5091800;28;20208;-76
2022/01/04 03:39:04;;;;;;;3.57;2.70;;;11.20;99.90;;;;;;5092174;28;20219;-76
2022/01/04 03:41:33;;;;;;;5.30;3.00;;;11.20;99.90;;;;;;5089944;28;20180;-76
2022/01/04 03:43:59;;;;;;;4.03;2.77;;;11.10;99.90;;;;;;5092933;28;20199;-76
2022/01/04 03:46:25;;;;;;;5.27;2.93;;;11.20;99.90;;;;;;5091286;28;20271;-76
2022/01/04 03:48:51;;;;;;;6.67;4.07;;;11.20;99.90;;;;;;5092043;28;20196;-76
2022/01/04 03:51:18;;;;;;;5.67;3.20;;;11.10;99.90;;;;;;5073289;28;20233;-74
2022/01/04 03:53:44;;;;;;;5.20;2.90;;;11.10;99.90;;;;;;5090969;28;20691;-74
2022/01/04 03:56:10;;;;;;;5.50;3.30;;;11.20;99.90;;;;;;5092062;28;20208;-74
2022/01/04 03:58:36;;;;;;;8.10;4.67;;;11.10;99.90;;;;;;5091922;28;20253;-74
2022/01/04 04:01:03;;;;;;;6.40;3.83;;;11.10;99.90;;;;;;5091771;28;20177;-73
2022/01/04 04:03:29;;;;;;;4.90;2.90;;;11.10;99.90;;;;;;5092294;28;20307;-74
2022/01/04 04:05:55;;;;;;;6.80;3.37;;;11.10;99.90;;;;;;5090273;28;20246;-74
2022/01/04 04:08:20;;;;;;;3.10;2.80;;;11.20;99.90;;;;;;5091250;28;20608;-74
2022/01/04 04:10:46;;;;;;;6.23;3.17;;;11.10;99.90;;;;;;5090711;28;20212;-74
2022/01/04 04:13:12;;;;;;;4.37;3.33;;;11.20;99.90;;;;;;5089246;28;20549;-73
2022/01/04 04:15:41;;;;;;;6.20;3.17;;;11.10;99.90;;;;;;5092046;28;20196;-74
2022/01/04 04:18:07;;;;;;;3.87;2.80;;;11.20;99.90;;;;;;5091437;28;20228;-74
2022/01/04 04:20:35;;;;;;;4.43;3.17;;;11.20;99.90;;;;;;5091075;28;20169;-74
2022/01/04 04:23:00;;;;;;;4.43;3.10;;;11.10;99.90;;;;;;5090593;28;20557;-74
2022/01/04 04:25:26;;;;;;;8.47;3.80;;;11.10;99.90;;;;;;5091582;28;20177;-74
2022/01/04 04:27:52;;;;;;;6.37;3.60;;;11.10;99.90;;;;;;5091087;28;20227;-74
2022/01/04 04:30:17;;;;;;;3.87;3.10;;;11.10;99.90;;;;;;5090118;28;20662;-74
2022/01/04 04:32:43;;;;;;;5.93;3.17;;;11.10;99.90;;;;;;5090035;28;20212;-74
2022/01/04 04:35:09;;;;;;;4.30;3.20;;;11.10;99.90;;;;;;5091272;28;20702;-74
2022/01/04 04:37:35;;;;;;;7.77;4.87;;;11.10;99.90;;;;;;5069491;28;20685;-74
2022/01/04 04:40:01;;;;;;;5.40;3.70;;;11.10;99.90;;;;;;5072507;28;20254;-74
2022/01/04 04:42:27;;;;;;;3.47;2.67;;;11.10;99.90;;;;;;5089775;28;20546;-74
2022/01/04 04:44:52;;;;;;;4.53;3.27;;;11.10;99.90;;;;;;5089616;28;20833;-74
2022/01/04 04:47:18;;;;;;;4.30;2.70;;;11.10;99.90;;;;;;5090605;28;20210;-74
2022/01/04 04:49:44;;;;;;;4.23;3.03;;;11.10;99.90;;;;;;5091191;28;20259;-74
2022/01/04 04:52:10;;;;;;;4.27;3.30;;;11.10;99.90;;;;;;5090983;28;20484;-74
2022/01/04 04:54:36;;;;;;;3.50;2.83;;;11.10;99.90;;;;;;5090799;28;20182;-74
2022/01/04 04:57:01;;;;;;;4.87;2.63;;;11.10;99.90;;;;;;5089291;28;20196;-74
2022/01/04 04:59:27;;;;;;;5.97;3.07;;;11.00;99.90;;;;;;5091399;28;20176;-74
2022/01/04 05:01:53;;;;;;;5.40;3.20;;;11.10;99.90;;;;;;5090483;28;20565;-74
2022/01/04 05:04:19;;;;;;;3.27;2.80;;;11.00;99.90;;;;;;5091216;28;20182;-74
2022/01/04 05:06:45;;;;;;;4.37;2.60;;;11.10;99.90;;;;;;5087581;28;20188;-74
2022/01/04 05:09:11;;;;;;;3.90;2.87;;;11.00;99.90;;;;;;5090702;28;20263;-74
2022/01/04 05:11:36;;;;;;;4.47;2.77;;;11.10;99.90;;;;;;5087819;28;20299;-74
2022/01/04 05:14:03;;;;;;;4.43;3.10;;;11.10;99.90;;;;;;5090425;28;20173;-74
2022/01/04 05:16:29;;;;;;;3.33;2.60;;;11.00;99.90;;;;;;5090418;28;20604;-74
2022/01/04 05:18:55;;;;;;;3.40;2.77;;;11.00;99.90;;;;;;5088921;28;20199;-74
2022/01/04 05:21:23;;;;;;;7.03;2.97;;;11.00;99.90;;;;;;5087957;28;20177;-74
2022/01/04 05:23:50;;;;;;;3.67;3.00;;;11.00;99.90;;;;;;5072713;28;20199;-74
2022/01/04 05:26:16;;;;;;;3.57;2.50;;;11.00;99.90;;;;;;5089717;28;20666;-74
2022/01/04 05:28:45;;;;;;;4.77;2.70;;;11.00;99.90;;;;;;5072726;28;20208;-74
2022/01/04 05:31:14;;;;;;;4.50;3.20;;;11.00;99.90;;;;;;5090216;28;20208;-74
2022/01/04 05:33:41;;;;;;;4.50;2.80;;;11.00;99.90;;;;;;5068871;28;20205;-74
2022/01/04 05:36:07;;;;;;;3.97;2.93;;;11.00;99.90;;;;;;5080188;28;20640;-74
2022/01/04 05:38:33;;;;;;;5.43;4.00;;;11.00;99.90;;;;;;5090049;28;20200;-74
2022/01/04 05:40:59;;;;;;;7.70;3.37;;;11.00;99.90;;;;;;5090067;28;20187;-74
2022/01/04 05:43:24;;;;;;;3.63;2.83;;;11.00;99.90;;;;;;5072803;28;20667;-76
2022/01/04 05:45:50;;;;;;;4.27;2.90;;;11.00;99.90;;;;;;5089795;28;20241;-74
2022/01/04 05:48:18;;;;;;;3.90;2.93;;;11.00;99.90;;;;;;5089553;28;20287;-74
2022/01/04 05:50:44;;;;;;;3.33;2.77;;;10.90;99.90;;;;;;5087997;28;20168;-74
2022/01/04 05:53:10;;;;;;;3.30;2.77;;;11.00;99.90;;;;;;5072098;28;20204;-74
2022/01/04 05:55:36;;;;;;;4.30;2.60;;;11.00;99.90;;;;;;5093662;28;20251;-74
2022/01/04 05:58:02;;;;;;;4.00;2.60;;;11.00;99.90;;;;;;5087518;28;20275;-74
2022/01/04 06:00:28;;;;;;;3.43;2.33;;;11.00;99.90;;;;;;5088882;28;20179;-74
2022/01/04 06:02:54;;;;;;;5.27;2.67;;;11.00;99.90;;;;;;5083144;28;20191;-74
2022/01/04 06:05:19;;;;;;;3.70;2.60;;;11.00;99.90;;;;;;5092715;28;20549;-74
2022/01/04 06:07:45;;;;;;;4.00;2.50;;;11.00;99.90;;;;;;5091371;28;20200;-77
2022/01/04 06:10:13;;;;;;;4.10;2.70;;;11.00;99.90;;;;;;5074666;28;20180;-71
2022/01/04 06:15:09;;;;;;;3.80;2.60;;;10.90;99.90;;;;;;5090324;28;20169;-72
2022/01/04 06:17:38;;;;;;;6.37;2.63;;;10.90;99.90;;;;;;5072895;28;20242;-72
2022/01/04 06:20:08;;;;;;;2.60;2.30;;;11.00;99.90;;;;;;5075990;28;20176;-73
2022/01/04 06:22:34;;;;;;;2.90;2.53;;;11.00;99.90;;;;;;5059405;28;20177;-72
2022/01/04 06:25:00;;;;;;;3.73;2.60;;;11.00;99.90;;;;;;5074024;28;20184;-72
2022/01/04 06:27:26;;;;;;;4.03;2.30;;;11.00;99.90;;;;;;5085985;28;20201;-74
2022/01/04 06:29:52;;;;;;;3.47;2.53;;;11.00;99.90;;;;;;5078105;28;20184;-73
2022/01/04 06:32:18;;;;;;;3.37;2.40;;;11.00;99.90;;;;;;5093652;28;20200;-73
2022/01/04 06:34:44;;;;;;;3.57;2.30;;;11.10;99.90;;;;;;5093384;28;20180;-73
2022/01/04 06:37:11;;;;;;;4.07;2.20;;;11.00;99.90;;;;;;5093530;28;20208;-73
2022/01/04 06:39:37;;;;;;;3.73;2.63;;;11.10;99.90;;;;;;5091938;28;20177;-73
2022/01/04 06:42:04;;;;;;;4.17;2.40;;;11.00;99.90;;;;;;5094027;28;20659;-73
2022/01/04 06:44:30;;;;;;;3.10;2.10;;;11.00;99.90;;;;;;5093021;28;20204;-73
2022/01/04 06:46:56;;;;;;;2.80;2.13;;;11.10;99.90;;;;;;5091236;28;20690;-73
2022/01/04 06:49:22;;;;;;;4.33;3.60;;;11.10;99.90;;;;;;5085922;28;20177;-73
2022/01/04 06:51:49;;;;;;;2.57;2.10;;;11.10;99.90;;;;;;5073411;28;21047;-72
2022/01/04 06:54:17;;;;;;;2.97;2.30;;;11.10;99.90;;;;;;5074438;28;20223;-73
2022/01/04 06:56:43;;;;;;;2.67;2.03;;;11.20;99.90;;;;;;5078628;28;20173;-73
2022/01/04 06:59:10;;;;;;;2.37;2.00;;;11.10;99.90;;;;;;5093834;28;20267;-73
2022/01/04 07:01:36;;;;;;;2.83;1.93;;;11.10;99.90;;;;;;5092520;28;20176;-73
2022/01/04 07:04:03;;;;;;;4.40;1.93;;;11.20;99.90;;;;;;5070907;28;20223;-73
2022/01/04 07:06:29;;;;;;;2.13;1.80;;;11.20;99.90;;;;;;5074269;28;20627;-73
2022/01/04 07:08:55;;;;;;;3.20;2.10;;;11.20;99.90;;;;;;5093398;28;20732;-73
2022/01/04 07:11:21;;;;;;;2.43;2.00;;;11.20;99.90;;;;;;5093198;28;20736;-74
2022/01/04 07:13:47;;;;;;;2.57;1.87;;;11.20;99.90;;;;;;5092484;28;20259;-75
2022/01/04 07:16:13;;;;;;;2.20;1.80;;;11.20;99.90;;;;;;5092090;28;20660;-77
2022/01/04 07:18:39;;;;;;;4.23;2.00;;;11.30;99.90;;;;;;5090934;28;20566;-75
2022/01/04 07:21:05;;;;;;;3.57;1.77;;;11.30;99.90;;;;;;5096619;28;20597;-74
2022/01/04 07:23:31;;;;;;;2.73;1.90;;;11.30;99.90;;;;;;5091429;28;20915;-76
2022/01/04 07:25:57;;;;;;;3.03;2.20;;;11.30;99.90;;;;;;5091759;28;20655;-74
2022/01/04 07:28:23;;;;;;;2.10;1.90;;;11.30;99.90;;;;;;5093087;28;20197;-74
2022/01/04 07:30:49;;;;;;;2.20;2.00;;;11.30;99.90;;;;;;5092481;28;20192;-74
2022/01/04 07:33:17;;;;;;;2.97;2.00;;;11.30;99.90;;;;;;5074492;28;20204;-73
2022/01/04 07:35:44;;;;;;;4.73;2.33;;;11.30;99.90;;;;;;5092515;28;20271;-73
2022/01/04 07:38:11;;;;;;;2.53;2.13;;;11.30;99.90;;;;;;5091743;28;20694;-73
2022/01/04 07:40:36;;;;;;;3.33;2.07;;;11.40;99.90;;;;;;5077394;28;20205;-73
2022/01/04 07:43:02;;;;;;;2.07;1.87;;;11.30;99.90;;;;;;5087744;28;20273;-73
2022/01/04 07:45:33;;;;;;;4.10;2.20;;;11.30;99.90;;;;;;5091424;28;20181;-73
2022/01/04 07:48:00;;;;;;;2.50;2.07;;;11.40;99.90;;;;;;5072592;28;20584;-73
2022/01/04 07:50:27;;;;;;;2.23;1.80;;;11.30;99.90;;;;;;5073975;28;20215;-73
2022/01/04 07:52:53;;;;;;;2.50;2.20;;;11.40;99.90;;;;;;5073889;28;20219;-73
2022/01/04 07:55:19;;;;;;;2.20;1.97;;;11.40;99.90;;;;;;5107314;28;20239;-73
2022/01/04 07:57:45;;;;;;;2.40;2.20;;;11.40;99.90;;;;;;5090649;28;20237;-73
2022/01/04 08:00:12;;;;;;;2.30;2.10;;;11.40;99.90;;;;;;5088444;28;20584;-73
2022/01/04 08:02:42;;;;;;;3.77;2.00;;;11.40;99.90;;;;;;5071553;28;20193;-73
2022/01/04 08:05:09;;;;;;;2.57;2.20;;;11.40;99.90;;;;;;5086051;28;20168;-73
2022/01/04 08:07:34;;;;;;;3.03;2.20;;;11.40;99.90;;;;;;5091238;28;20207;-73
2022/01/04 08:10:00;;;;;;;3.57;2.07;;;11.40;99.90;;;;;;5091317;28;20527;-73
2022/01/04 08:12:26;;;;;;;3.00;2.10;;;11.40;99.90;;;;;;5091070;28;20208;-73
2022/01/04 08:14:52;;;;;;;2.83;2.33;;;11.40;99.90;;;;;;5092201;28;20513;-73
2022/01/04 08:17:18;;;;;;;4.80;2.30;;;11.50;99.90;;;;;;5083941;28;20185;-73
2022/01/04 08:19:44;;;;;;;3.97;2.50;;;11.50;99.90;;;;;;5081955;28;20256;-73
2022/01/04 08:22:10;;;;;;;2.10;1.90;;;11.50;99.90;;;;;;5085960;28;20267;-73
2022/01/04 08:24:35;;;;;;;3.20;2.40;;;11.50;99.90;;;;;;5090702;28;20683;-73
2022/01/04 08:27:01;;;;;;;3.57;2.60;;;11.50;99.90;;;;;;5089691;28;20695;-73
2022/01/04 08:29:28;;;;;;;2.47;2.27;;;11.60;99.90;;;;;;5091532;28;20176;-73
2022/01/04 08:31:53;;;;;;;3.43;2.43;;;11.50;99.90;;;;;;5090819;28;20200;-73
2022/01/04 08:34:19;;;;;;;3.93;2.40;;;11.60;99.90;;;;;;5091117;28;20192;-73
2022/01/04 08:36:45;;;;;;;2.60;2.40;;;11.60;99.90;;;;;;5090451;28;20177;-73
2022/01/04 08:39:14;;;;;;;3.03;2.60;;;11.60;99.90;;;;;;5089640;28;20682;-73
2022/01/04 08:41:45;;;;;;;3.30;2.23;;;11.60;99.90;;;;;;5091387;28;20219;-73
2022/01/04 08:44:11;;;;;;;4.30;2.57;;;11.60;99.90;;;;;;5081656;28;20305;-73
2022/01/04 08:46:39;;;;;;;2.53;2.10;;;11.60;99.90;;;;;;5088622;28;20184;-73
2022/01/04 08:49:08;;;;;;;2.57;2.37;;;11.70;99.90;;;;;;5091303;28;20200;-73
2022/01/04 08:51:35;;;;;;;2.70;2.30;;;11.70;99.90;;;;;;5089078;28;20677;-73
2022/01/04 08:54:01;;;;;;;3.97;2.63;;;11.70;99.90;;;;;;5090014;28;20176;-73
2022/01/04 08:56:27;;;;;;;2.83;2.50;;;11.70;99.90;;;;;;5090428;28;20207;-73
2022/01/04 08:58:53;;;;;;;3.63;2.33;;;11.70;99.90;;;;;;5089688;28;20619;-73
2022/01/04 09:01:20;;;;;;;2.87;2.40;;;11.70;99.90;;;;;;5087035;28;20204;-73
2022/01/04 09:03:45;;;;;;;4.10;2.20;;;11.80;99.90;;;;;;5077061;28;20179;-73
2022/01/04 09:06:11;;;;;;;3.30;2.10;;;11.80;99.90;;;;;;5075915;28;20536;-73
2022/01/04 09:08:37;;;;;;;3.83;2.40;;;11.70;99.90;;;;;;5075170;28;20630;-73
2022/01/04 09:11:03;;;;;;;2.93;2.53;;;11.80;99.90;;;;;;5074962;28;20212;-74
2022/01/04 09:13:37;;;;;;;3.57;2.60;;;11.80;99.90;;;;;;5081668;28;20208;-74
2022/01/04 09:18:43;;;;;;;2.63;2.40;;;11.80;99.90;;;;;;5079147;28;20192;-74
2022/01/04 09:21:20;;;;;;;2.83;2.50;;;11.80;99.90;;;;;;5088407;28;20187;-75
2022/01/04 09:23:48;;;;;;;3.57;2.37;;;11.80;99.90;;;;;;5089289;28;20187;-73
2022/01/04 09:26:15;;;;;;;3.47;2.23;;;11.80;99.90;;;;;;5083562;28;20185;-73
2022/01/04 09:28:42;;;;;;;5.03;2.50;;;11.80;99.90;;;;;;5077884;28;20551;-73
2022/01/04 09:31:08;;;;;;;3.83;2.40;;;11.80;99.90;;;;;;5074332;28;20204;-73
2022/01/04 09:33:35;;;;;;;3.77;2.30;;;11.80;99.90;;;;;;5077824;28;20211;-73
2022/01/04 09:36:02;;;;;;;3.40;2.10;;;11.90;99.90;;;;;;5081549;28;20173;-73
2022/01/04 09:38:27;;;;;;;3.20;1.93;;;11.90;99.90;;;;;;5072517;28;20257;-74
2022/01/04 09:40:55;;;;;;;3.50;2.30;;;11.90;99.90;;;;;;5085059;28;20268;-75
2022/01/04 09:43:21;;;;;;;4.53;2.80;;;11.90;99.90;;;;;;5085998;28;20181;-75
2022/01/04 09:45:49;;;;;;;3.47;2.83;;;11.90;99.90;;;;;;5081715;28;20219;-75
2022/01/04 09:48:15;;;;;;;2.60;2.17;;;11.90;99.90;;;;;;5041292;28;20192;-76
2022/01/04 09:50:42;;;;;;;4.57;2.20;;;11.90;99.90;;;;;;5083608;28;20219;-75
2022/01/04 09:53:19;;;;;;;4.20;2.27;;;12.00;99.90;;;;;;5084306;28;21112;-74
2022/01/04 09:55:47;;;;;;;2.33;1.93;;;12.00;99.90;;;;;;5086623;28;20176;-75
2022/01/04 09:58:12;;;;;;;2.63;2.40;;;12.00;99.90;;;;;;5077442;28;20204;-75
2022/01/04 10:00:38;;;;;;;3.90;2.13;;;12.00;99.90;;;;;;5078911;28;20177;-74
2022/01/04 10:03:11;;;;;;;4.47;2.00;;;12.00;99.90;;;;;;5077493;28;20180;-74
2022/01/04 10:05:37;;;;;;;5.00;2.50;;;12.10;99.90;;;;;;5069891;28;20177;-73
2022/01/04 10:08:05;;;;;;;4.00;2.30;;;12.10;99.90;;;;;;5076379;28;20613;-73
2022/01/04 10:10:32;;;;;;;4.43;2.67;;;12.10;99.90;;;;;;5072544;28;20177;-74
2022/01/04 10:13:01;;;;;;;4.20;2.63;;;12.10;99.90;;;;;;5078549;28;20204;-75
2022/01/04 10:15:47;;;;;;;4.83;3.00;;;12.10;99.90;;;;;;5080137;28;20165;-75
2022/01/04 10:18:13;;;;;;;4.33;2.60;;;12.10;99.90;;;;;;5073660;28;20560;-75
2022/01/04 10:20:40;;;;;;;5.63;2.80;;;12.10;99.90;;;;;;5072148;28;20211;-75
2022/01/04 10:23:11;;;;;;;3.87;2.20;;;12.20;99.90;;;;;;5074153;28;20643;-75
2022/01/04 10:25:37;;;;;;;5.27;2.30;;;12.10;99.90;;;;;;5069151;28;20656;-75
2022/01/04 10:28:04;;;;;;;4.20;2.30;;;12.20;99.90;;;;;;5092438;28;20228;-75
2022/01/04 10:30:31;;;;;;;4.47;3.40;;;12.20;99.90;;;;;;5092966;28;20181;-75
2022/01/04 10:33:06;;;;;;;2.87;2.60;;;12.10;99.90;;;;;;5089351;28;20247;-75
2022/01/04 10:35:37;;;;;;;3.77;3.47;;;11.80;99.90;;;;;;5089854;28;20640;-75
2022/01/04 10:38:27;;;;;;;4.20;3.80;;;11.60;99.90;;;;;;5090194;28;20204;-75
2022/01/04 10:41:20;;;;;;;4.97;3.80;;;11.40;99.90;;;;;;5088694;28;20180;-75
2022/01/04 10:44:03;;;;;;;3.83;3.47;;;11.20;99.90;;;;;;5092556;28;20185;-75
2022/01/04 10:46:38;;;;;;;2.93;2.70;;;11.00;99.90;;;;;;5091517;28;20192;-75
2022/01/04 10:49:19;;;;;;;3.27;2.97;;;10.80;99.90;;;;;;5093770;28;20222;-75
2022/01/04 10:52:02;;;;;;;3.50;2.30;;;10.60;99.90;;;;;;5092961;28;20602;-76
2022/01/04 10:54:28;;;;;;;2.67;2.07;;;10.40;99.90;;;;;;5096996;28;20176;-75
2022/01/04 10:57:04;;;;;;;4.67;2.10;;;10.20;99.90;;;;;;5094960;28;20184;-75
2022/01/04 10:59:30;;;;;;;2.73;1.87;;;10.00;99.90;;;;;;5091883;28;20313;-74
2022/01/04 11:01:56;;;;;;;2.27;1.50;;;10.00;99.90;;;;;;5088283;28;20319;-74
2022/01/04 11:04:21;;;;;;;1.70;1.40;;;9.90;99.90;;;;;;5091592;28;20182;-74
2022/01/04 11:06:56;;;;;;;2.07;1.30;;;9.80;99.90;;;;;;5093829;28;20183;-74
2022/01/04 11:09:22;;;;;;;2.20;1.73;;;9.80;99.90;;;;;;5085017;28;20270;-74
2022/01/04 11:11:48;;;;;;;2.13;1.93;;;9.70;99.90;;;;;;5093369;28;20323;-74
2022/01/04 11:14:14;;;;;;;1.97;1.77;;;9.70;99.90;;;;;;5103977;28;20184;-76
2022/01/04 11:16:41;;;;;;;2.00;1.50;;;9.60;99.90;;;;;;5108840;28;20187;-74
2022/01/04 11:19:07;;;;;;;2.60;1.90;;;9.50;99.90;;;;;;5093277;28;20197;-74
2022/01/04 11:21:36;;;;;;;1.90;1.70;;;9.50;99.90;;;;;;5094093;28;20530;-73
2022/01/04 11:24:08;;;;;;;2.33;1.93;;;9.50;99.90;;;;;;5099822;28;20347;-73
2022/01/04 11:26:34;;;;;;;2.00;1.73;;;9.40;99.90;;;;;;5105990;28;20182;-73
2022/01/04 11:29:00;;;;;;;2.37;1.80;;;9.40;99.90;;;;;;5093432;28;20288;-73
2022/01/04 11:31:52;;;;;;;2.00;1.67;;;9.40;99.90;;;;;;5090390;28;20172;-73
2022/01/04 11:34:35;;;;;;;1.90;1.80;;;9.40;99.90;;;;;;5090884;28;20185;-73
2022/01/04 11:37:02;;;;;;;2.10;1.80;;;9.40;99.90;;;;;;5088859;28;20184;-73
2022/01/04 11:39:41;;;;;;;2.43;1.90;;;9.40;99.90;;;;;;5092019;28;20184;-73
2022/01/04 11:42:31;;;;;;;2.43;2.20;;;9.30;99.90;;;;;;5092081;28;20190;-73
2022/01/04 11:44:58;;;;;;;2.60;2.37;;;9.30;99.90;;;;;;5095082;28;20212;-73
2022/01/04 11:47:27;;;;;;;3.17;2.10;;;9.30;99.90;;;;;;5091991;28;20216;-73
2022/01/04 11:50:20;;;;;;;3.57;2.50;;;9.30;99.90;;;;;;5090978;28;20713;-73
2022/01/04 11:52:46;;;;;;;2.03;1.83;;;9.20;99.90;;;;;;5091285;28;20563;-73
2022/01/04 11:55:23;;;;;;;2.73;2.30;;;9.20;99.90;;;;;;5091467;28;20172;-73
2022/01/04 11:57:50;;;;;;;2.87;1.60;;;9.20;99.90;;;;;;5091929;28;20192;-76
2022/01/04 12:00:32;;;;;;;2.80;2.00;;;9.30;99.90;;;;;;5090748;28;20165;-74
2022/01/04 12:03:08;;;;;;;2.80;1.73;;;9.10;99.90;;;;;;5092376;28;20176;-73
2022/01/04 12:05:36;;;;;;;2.27;1.70;;;9.00;99.90;;;;;;5090953;28;20553;-74
2022/01/04 12:08:20;;;;;;;2.87;1.57;;;9.00;99.90;;;;;;5091863;28;20209;-73
2022/01/04 12:10:50;;;;;;;2.23;1.60;;;9.00;99.90;;;;;;5091410;28;20196;-74
2022/01/04 12:13:18;;;;;;;1.50;1.40;;;8.90;99.90;;;;;;5079189;28;20212;-74
2022/01/04 12:15:49;;;;;;;1.83;1.63;;;8.90;99.90;;;;;;5078727;28;20179;-73
2022/01/04 12:18:24;;;;;;;2.17;1.60;;;8.90;99.90;;;;;;5085599;28;20200;-73
2022/01/04 12:20:52;;;;;;;2.50;1.87;;;9.00;99.90;;;;;;5091931;28;20171;-74
2022/01/04 12:23:24;;;;;;;2.70;2.07;;;8.90;99.90;;;;;;5091566;28;20194;-74
2022/01/04 12:26:16;;;;;;;1.93;1.70;;;8.90;99.90;;;;;;5091759;28;20191;-74
2022/01/04 12:28:58;;;;;;;1.50;1.30;;;8.90;99.90;;;;;;5072053;28;20300;-74
2022/01/04 12:31:28;;;;;;;3.17;1.13;;;8.90;99.90;;;;;;5081189;28;20196;-74
2022/01/04 12:34:01;;;;;;;1.93;1.20;;;8.80;99.90;;;;;;5085220;28;20243;-74
2022/01/04 12:36:46;;;;;;;0.90;0.90;;;8.70;99.90;;;;;;5074884;28;20242;-74
2022/01/04 12:39:17;;;;;;;2.57;1.13;;;8.70;99.90;;;;;;5086921;28;20222;-74
2022/01/04 12:41:45;;;;;;;2.83;1.00;;;8.60;99.90;;;;;;5086242;28;20169;-73
2022/01/04 12:44:22;;;;;;;1.37;0.93;;;8.60;99.90;;;;;;5085490;28;20264;-74
2022/01/04 12:46:48;;;;;;;1.57;1.00;;;8.60;99.90;;;;;;5067902;28;20189;-74
2022/01/04 12:49:17;;;;;;;0.97;0.80;;;8.50;99.90;;;;;;5080593;28;20192;-74
2022/01/04 12:51:44;;;;;;;1.30;1.00;;;8.50;99.90;;;;;;5076751;28;20205;-74
2022/01/04 12:54:18;;;;;;;1.17;0.90;;;8.50;99.90;;;;;;5066761;28;20180;-74
2022/01/04 12:56:48;;;;;;;1.00;0.87;;;8.50;99.90;;;;;;5075265;28;20176;-74
2022/01/04 12:59:22;;;;;;;1.13;0.93;;;8.50;99.90;;;;;;5075334;28;20181;-74